createdAt,value
2018-10-19T00:01:19.755Z,15.10
2018-10-19T00:03:48.496Z,15.20
2018-10-19T00:06:17.342Z,15.20
2018-10-19T00:08:46.108Z,15.10
2018-10-19T00:11:15.065Z,15.00
2018-10-19T00:13:43.823Z,14.40
2018-10-19T00:16:12.767Z,14.50
2018-10-19T00:18:41.658Z,14.10
2018-10-19T00:21:10.498Z,15.40
2018-10-19T00:23:39.336Z,14.80
2018-10-19T00:26:08.373Z,14.50
2018-10-19T00:28:37.432Z,15.00
2018-10-19T00:31:06.201Z,15.30
2018-10-19T00:33:34.998Z,15.20
2018-10-19T00:36:03.716Z,14.40
2018-10-19T00:38:32.576Z,13.90
2018-10-19T00:41:01.422Z,14.30
2018-10-19T00:43:30.320Z,15.50
2018-10-19T00:45:59.260Z,14.70
2018-10-19T00:48:28.092Z,14.50
2018-10-19T00:50:56.967Z,13.60
2018-10-19T00:53:25.984Z,14.20
2018-10-19T00:55:54.660Z,14.10
2018-10-19T00:58:23.420Z,14.00
2018-10-19T01:00:52.110Z,14.10
2018-10-19T01:03:20.984Z,14.00
2018-10-19T01:05:49.856Z,15.30
2018-10-19T01:08:18.624Z,15.50
2018-10-19T01:10:47.295Z,14.60
2018-10-19T01:13:15.976Z,14.50
2018-10-19T01:15:44.649Z,13.80
2018-10-19T01:18:13.432Z,14.30
2018-10-19T01:20:42.355Z,14.00
2018-10-19T01:23:11.247Z,13.80
2018-10-19T01:25:41.684Z,13.10
2018-10-19T01:28:10.758Z,13.40
2018-10-19T01:30:39.724Z,13.70
2018-10-19T01:33:08.559Z,14.60
2018-10-19T01:35:37.472Z,14.90
2018-10-19T01:38:06.880Z,13.90
2018-10-19T01:40:35.590Z,13.80
2018-10-19T01:43:04.269Z,14.80
2018-10-19T01:45:33.008Z,14.60
2018-10-19T01:48:01.687Z,15.10
2018-10-19T01:50:37.137Z,14.10
2018-10-19T01:53:06.171Z,13.50
2018-10-19T01:55:35.139Z,13.20
2018-10-19T01:58:04.073Z,12.90
2018-10-19T02:00:32.853Z,12.80
2018-10-19T02:03:01.681Z,14.10
2018-10-19T02:05:30.336Z,13.40
2018-10-19T02:07:59.251Z,13.50
2018-10-19T02:10:27.920Z,13.40
2018-10-19T02:12:56.595Z,13.60
2018-10-19T02:15:25.262Z,13.60
2018-10-19T02:17:54.008Z,13.40
2018-10-19T02:20:22.715Z,13.90
2018-10-19T02:22:51.375Z,14.50
2018-10-19T02:25:20.097Z,13.60
2018-10-19T02:27:48.776Z,14.50
2018-10-19T02:30:18.110Z,14.30
2018-10-19T02:32:47.073Z,13.50
2018-10-19T02:35:16.095Z,13.50
2018-10-19T02:37:44.884Z,13.40
2018-10-19T02:40:13.774Z,14.40
2018-10-19T02:42:42.833Z,13.30
2018-10-19T02:45:11.886Z,13.90
2018-10-19T02:47:41.053Z,13.90
2018-10-19T02:50:10.378Z,13.80
2018-10-19T02:52:39.883Z,14.00
2018-10-19T02:55:09.775Z,13.80
2018-10-19T02:57:38.744Z,13.50
2018-10-19T03:00:10.308Z,14.30
2018-10-19T03:02:39.515Z,15.30
2018-10-19T03:05:09.291Z,14.90
2018-10-19T03:07:38.547Z,13.50
2018-10-19T03:10:07.895Z,12.80
2018-10-19T03:12:36.884Z,12.30
2018-10-19T03:15:07.145Z,12.80
2018-10-19T03:17:35.956Z,13.70
2018-10-19T03:20:05.829Z,13.40
2018-10-19T03:22:34.535Z,14.30
2018-10-19T03:25:03.228Z,14.50
2018-10-19T03:27:31.871Z,13.60
2018-10-19T03:30:00.555Z,13.80
2018-10-19T03:32:29.188Z,14.60
2018-10-19T03:34:57.893Z,14.70
2018-10-19T03:37:26.554Z,16.00
2018-10-19T03:39:55.201Z,15.40
2018-10-19T03:42:23.889Z,15.60
2018-10-19T03:44:52.593Z,14.90
2018-10-19T03:47:21.276Z,15.00
2018-10-19T03:49:50.046Z,14.30
2018-10-19T03:52:18.850Z,16.00
2018-10-19T03:54:47.807Z,15.50
2018-10-19T03:57:16.554Z,16.10
2018-10-19T03:59:45.355Z,15.10
2018-10-19T04:02:14.069Z,16.10
2018-10-19T04:04:42.874Z,14.70
2018-10-19T04:07:11.859Z,14.00
2018-10-19T04:09:40.633Z,13.40
2018-10-19T04:12:10.038Z,14.30
2018-10-19T04:14:39.201Z,13.60
2018-10-19T04:17:08.372Z,15.00
2018-10-19T04:19:37.400Z,14.80
2018-10-19T04:22:06.386Z,14.70
2018-10-19T04:24:35.249Z,15.20
2018-10-19T04:27:04.373Z,14.80
2018-10-19T04:29:33.103Z,14.90
2018-10-19T04:32:01.946Z,15.70
2018-10-19T04:34:30.806Z,16.10
2018-10-19T04:37:02.601Z,16.40
2018-10-19T04:39:31.303Z,15.60
2018-10-19T04:42:00.292Z,14.70
2018-10-19T04:44:28.983Z,13.70
2018-10-19T04:46:58.221Z,14.50
2018-10-19T04:49:27.188Z,12.80
2018-10-19T04:51:56.063Z,13.20
2018-10-19T04:54:24.952Z,14.10
2018-10-19T04:56:53.746Z,13.60
2018-10-19T04:59:22.596Z,14.00
2018-10-19T05:01:51.484Z,14.30
2018-10-19T05:04:20.236Z,14.60
2018-10-19T05:06:49.280Z,14.30
2018-10-19T05:09:17.907Z,14.10
2018-10-19T05:11:46.800Z,14.50
2018-10-19T05:14:15.833Z,15.60
2018-10-19T05:16:44.568Z,14.60
2018-10-19T05:19:13.505Z,14.60
2018-10-19T05:21:42.322Z,14.30
2018-10-19T05:24:11.404Z,14.80
2018-10-19T05:26:40.599Z,15.50
2018-10-19T05:29:09.786Z,13.50
2018-10-19T05:31:38.939Z,13.70
2018-10-19T05:34:07.961Z,13.80
2018-10-19T05:36:36.744Z,12.80
2018-10-19T05:39:08.072Z,12.90
2018-10-19T05:41:37.102Z,13.90
2018-10-19T05:44:06.561Z,14.00
2018-10-19T05:46:35.712Z,13.40
2018-10-19T05:49:04.620Z,13.70
2018-10-19T05:51:33.662Z,14.40
2018-10-19T05:54:02.605Z,14.50
2018-10-19T05:56:31.318Z,14.50
2018-10-19T05:59:00.191Z,13.10
2018-10-19T06:01:29.839Z,13.50
2018-10-19T06:03:58.727Z,13.10
2018-10-19T06:06:27.602Z,14.20
2018-10-19T06:08:56.517Z,14.60
2018-10-19T06:11:25.316Z,14.20
2018-10-19T06:13:54.157Z,14.70
2018-10-19T06:16:22.790Z,14.60
2018-10-19T06:18:51.491Z,14.90
2018-10-19T06:21:20.196Z,14.60
2018-10-19T06:23:49.031Z,13.60
2018-10-19T06:26:17.760Z,14.40
2018-10-19T06:28:46.398Z,14.10
2018-10-19T06:31:15.047Z,14.30
2018-10-19T06:33:43.786Z,15.20
2018-10-19T06:36:12.524Z,16.00
2018-10-19T06:38:41.207Z,16.30
2018-10-19T06:41:09.980Z,15.70
2018-10-19T06:43:38.624Z,16.40
2018-10-19T06:46:07.476Z,14.20
2018-10-19T06:48:36.861Z,14.70
2018-10-19T06:51:05.808Z,15.40
2018-10-19T06:53:34.824Z,14.00
2018-10-19T06:56:03.501Z,14.90
2018-10-19T06:58:32.309Z,15.80
2018-10-19T07:01:01.018Z,16.00
2018-10-19T07:03:29.637Z,16.80
2018-10-19T07:05:58.437Z,15.60
2018-10-19T07:08:27.264Z,14.70
2018-10-19T07:10:56.164Z,14.30
2018-10-19T07:13:25.239Z,13.90
2018-10-19T07:15:54.120Z,14.00
2018-10-19T07:18:22.916Z,14.50
2018-10-19T07:20:51.839Z,15.00
2018-10-19T07:23:20.715Z,15.10
2018-10-19T07:25:49.584Z,15.20
2018-10-19T07:28:18.443Z,14.80
2018-10-19T07:30:47.350Z,13.90
2018-10-19T07:33:16.263Z,14.80
2018-10-19T07:35:45.323Z,16.00
2018-10-19T07:38:14.426Z,15.50
2018-10-19T07:40:43.375Z,15.50
2018-10-19T07:43:12.243Z,14.00
2018-10-19T07:45:41.305Z,13.70
2018-10-19T07:48:10.464Z,14.30
2018-10-19T07:50:39.193Z,15.30
2018-10-19T07:53:08.307Z,15.70
2018-10-19T07:55:37.376Z,16.30
2018-10-19T07:58:07.229Z,17.00
2018-10-19T08:00:36.201Z,15.00
2018-10-19T08:03:05.017Z,15.20
2018-10-19T08:05:33.830Z,13.50
2018-10-19T08:08:02.757Z,13.50
2018-10-19T08:10:31.632Z,13.20
2018-10-19T08:13:00.468Z,13.50
2018-10-19T08:15:29.224Z,13.30
2018-10-19T08:17:58.064Z,13.30
2018-10-19T08:20:27.083Z,13.20
2018-10-19T08:22:55.936Z,13.40
2018-10-19T08:25:25.088Z,14.40
2018-10-19T08:27:53.913Z,14.60
2018-10-19T08:30:22.784Z,14.30
2018-10-19T08:32:51.680Z,15.60
2018-10-19T08:35:20.380Z,15.30
2018-10-19T08:37:49.217Z,14.20
2018-10-19T08:40:18.048Z,14.40
2018-10-19T08:42:46.983Z,14.70
2018-10-19T08:45:15.749Z,13.80
2018-10-19T08:47:44.630Z,14.70
2018-10-19T08:50:13.489Z,13.90
2018-10-19T08:52:42.593Z,14.30
2018-10-19T08:55:11.600Z,15.70
2018-10-19T08:57:40.707Z,15.30
2018-10-19T09:00:10.865Z,14.40
2018-10-19T09:02:39.797Z,13.90
2018-10-19T09:05:08.903Z,14.10
2018-10-19T09:07:38.264Z,13.60
2018-10-19T09:10:07.808Z,14.00
2018-10-19T09:12:37.012Z,14.00
2018-10-19T09:15:06.738Z,14.20
2018-10-19T09:17:35.695Z,14.80
2018-10-19T09:20:04.915Z,15.30
2018-10-19T09:22:33.898Z,15.20
2018-10-19T09:25:02.761Z,15.20
2018-10-19T09:27:31.652Z,15.00
2018-10-19T09:30:00.533Z,14.70
2018-10-19T09:32:30.215Z,14.40
2018-10-19T09:34:59.169Z,14.70
2018-10-19T09:37:28.171Z,15.30
2018-10-19T09:39:57.199Z,14.80
2018-10-19T09:42:26.384Z,15.30
2018-10-19T09:44:55.401Z,15.70
2018-10-19T09:47:24.166Z,15.50
2018-10-19T09:49:53.028Z,16.10
2018-10-19T09:52:21.874Z,16.10
2018-10-19T09:54:50.627Z,16.30
2018-10-19T09:57:19.400Z,15.60
2018-10-19T09:59:48.116Z,16.00
2018-10-19T10:02:16.804Z,16.30
2018-10-19T10:04:45.895Z,16.50
2018-10-19T10:07:14.685Z,16.50
2018-10-19T10:09:43.438Z,16.30
2018-10-19T10:12:12.489Z,16.00
2018-10-19T10:14:41.455Z,16.50
2018-10-19T10:17:10.395Z,17.10
2018-10-19T10:19:39.103Z,15.80
2018-10-19T10:22:08.000Z,15.70
2018-10-19T10:24:36.894Z,16.00
2018-10-19T10:27:05.687Z,16.10
2018-10-19T10:29:34.406Z,16.30
2018-10-19T10:32:03.110Z,15.70
2018-10-19T10:34:31.768Z,15.60
2018-10-19T10:37:00.532Z,15.80
2018-10-19T10:39:29.364Z,15.80
2018-10-19T10:41:58.089Z,15.70
2018-10-19T10:44:27.236Z,16.00
2018-10-19T10:46:56.008Z,15.90
2018-10-19T10:49:24.792Z,15.40
2018-10-19T10:51:53.618Z,16.00
2018-10-19T10:54:22.312Z,16.60
2018-10-19T10:56:50.983Z,16.20
2018-10-19T10:59:19.611Z,15.90
2018-10-19T11:01:48.697Z,16.10
2018-10-19T11:04:17.635Z,15.70
2018-10-19T11:06:46.227Z,16.40
2018-10-19T11:09:14.940Z,16.60
2018-10-19T11:11:43.752Z,16.80
2018-10-19T11:14:12.540Z,17.30
2018-10-19T11:16:41.484Z,16.70
2018-10-19T11:19:10.573Z,16.30
2018-10-19T11:21:39.295Z,16.60
2018-10-19T11:24:08.614Z,16.30
2018-10-19T11:26:37.696Z,16.20
2018-10-19T11:29:06.784Z,17.00
2018-10-19T11:31:35.770Z,17.20
2018-10-19T11:34:04.518Z,16.80
2018-10-19T11:36:33.385Z,16.30
2018-10-19T11:39:02.146Z,16.30
2018-10-19T11:41:30.944Z,16.40
2018-10-19T11:43:59.771Z,16.40
2018-10-19T11:46:28.648Z,16.50
2018-10-19T11:48:57.430Z,16.70
2018-10-19T11:51:26.724Z,16.80
2018-10-19T11:53:55.698Z,16.70
2018-10-19T11:56:24.794Z,16.70
2018-10-19T11:58:53.691Z,16.50
2018-10-19T12:01:22.464Z,16.20
2018-10-19T12:03:51.317Z,16.60
2018-10-19T12:06:20.199Z,16.30
2018-10-19T12:08:49.116Z,16.00
2018-10-19T12:11:18.143Z,16.40
2018-10-19T12:13:46.931Z,17.00
2018-10-19T12:16:15.727Z,16.90
2018-10-19T12:18:44.663Z,16.50
2018-10-19T12:21:13.672Z,16.90
2018-10-19T12:23:42.680Z,16.80
2018-10-19T12:26:11.743Z,17.00
2018-10-19T12:28:40.892Z,17.60
2018-10-19T12:31:10.123Z,17.70
2018-10-19T12:33:38.960Z,17.40
2018-10-19T12:36:08.165Z,17.20
2018-10-19T12:38:37.203Z,17.10
2018-10-19T12:41:06.366Z,16.80
2018-10-19T12:43:35.131Z,16.90
2018-10-19T12:46:25.358Z,17.10
2018-10-19T12:48:54.812Z,16.90
2018-10-19T12:51:23.923Z,16.60
2018-10-19T12:53:52.793Z,16.90
2018-10-19T12:56:22.000Z,16.90
2018-10-19T12:58:51.840Z,16.70
2018-10-19T13:01:21.515Z,16.50
2018-10-19T13:03:50.306Z,16.50
2018-10-19T13:06:19.235Z,16.80
2018-10-19T13:08:48.264Z,16.70
2018-10-19T13:11:17.086Z,16.60
2018-10-19T13:13:45.880Z,17.10
2018-10-19T13:16:15.037Z,17.40
2018-10-19T13:18:43.719Z,17.30
2018-10-19T13:21:12.740Z,16.90
2018-10-19T13:23:41.888Z,16.70
2018-10-19T13:26:10.955Z,16.50
2018-10-19T13:28:39.896Z,16.70
2018-10-19T13:31:08.929Z,16.30
2018-10-19T13:33:37.852Z,16.50
2018-10-19T13:36:06.980Z,16.40
2018-10-19T13:38:36.060Z,16.20
2018-10-19T13:41:05.052Z,16.50
2018-10-19T13:43:33.839Z,16.40
2018-10-19T13:46:02.725Z,16.60
2018-10-19T13:48:31.483Z,16.80
2018-10-19T13:51:00.517Z,16.80
2018-10-19T13:53:29.335Z,17.00
2018-10-19T13:55:58.490Z,17.00
2018-10-19T13:58:27.393Z,17.20
2018-10-19T14:00:56.280Z,17.20
2018-10-19T14:03:25.204Z,17.00
2018-10-19T14:05:54.023Z,16.90
2018-10-19T14:08:22.908Z,17.10
2018-10-19T14:10:51.816Z,16.90
2018-10-19T14:13:20.775Z,17.20
2018-10-19T14:15:50.037Z,17.00
2018-10-19T14:18:18.939Z,17.00
2018-10-19T14:20:48.353Z,16.90
2018-10-19T14:23:17.380Z,17.20
2018-10-19T14:25:46.132Z,17.40
2018-10-19T14:28:15.067Z,17.30
2018-10-19T14:30:44.072Z,17.20
2018-10-19T14:33:13.011Z,17.00
2018-10-19T14:35:41.836Z,17.00
2018-10-19T14:38:11.231Z,17.10
2018-10-19T14:40:40.387Z,17.20
2018-10-19T14:43:09.568Z,17.30
2018-10-19T14:45:38.543Z,17.10
2018-10-19T14:48:07.715Z,16.50
2018-10-19T14:50:36.854Z,16.50
2018-10-19T14:53:05.845Z,16.40
2018-10-19T14:55:34.670Z,16.60
2018-10-19T14:58:03.515Z,17.00
2018-10-19T15:00:32.338Z,17.30
2018-10-19T15:03:01.260Z,16.50
2018-10-19T15:05:30.108Z,16.80
2018-10-19T15:07:58.936Z,17.10
2018-10-19T15:10:27.784Z,16.50
2018-10-19T15:12:56.408Z,16.40
2018-10-19T15:15:25.277Z,16.40
2018-10-19T15:17:54.014Z,16.50
2018-10-19T15:20:22.720Z,16.50
2018-10-19T15:22:51.569Z,16.30
2018-10-19T15:25:20.223Z,16.60
2018-10-19T15:27:48.919Z,16.60
2018-10-19T15:30:18.988Z,16.60
2018-10-19T15:32:47.669Z,16.60
2018-10-19T15:35:16.327Z,16.50
2018-10-19T15:37:45.108Z,16.50
2018-10-19T15:40:13.796Z,16.30
2018-10-19T15:42:42.619Z,16.40
2018-10-19T15:45:12.695Z,16.40
2018-10-19T15:47:41.399Z,16.00
2018-10-19T15:50:10.142Z,16.30
2018-10-19T15:52:39.102Z,16.60
2018-10-19T15:55:08.359Z,16.20
2018-10-19T15:57:37.192Z,16.30
2018-10-19T16:00:07.151Z,16.50
2018-10-19T16:02:35.843Z,16.50
2018-10-19T16:05:04.691Z,16.50
2018-10-19T16:07:33.499Z,16.70
2018-10-19T16:10:02.167Z,16.30
2018-10-19T16:12:30.896Z,16.30
2018-10-19T16:14:59.582Z,16.20
2018-10-19T16:17:28.261Z,16.10
2018-10-19T16:19:56.964Z,16.50
2018-10-19T16:22:25.920Z,16.60
2018-10-19T16:24:54.668Z,16.50
2018-10-19T16:27:23.491Z,16.20
2018-10-19T16:29:52.244Z,16.00
2018-10-19T16:32:20.883Z,16.20
2018-10-19T16:34:49.644Z,16.50
2018-10-19T16:37:18.304Z,16.30
2018-10-19T16:39:47.218Z,16.10
2018-10-19T16:42:15.903Z,16.30
2018-10-19T16:44:44.595Z,16.20
2018-10-19T16:47:13.353Z,16.20
2018-10-19T16:49:42.084Z,16.30
2018-10-19T16:52:11.080Z,16.50
2018-10-19T16:54:39.738Z,16.50
2018-10-19T16:57:08.701Z,16.10
2018-10-19T16:59:37.858Z,16.40
2018-10-19T17:02:06.992Z,16.80
2018-10-19T17:04:35.756Z,16.50
2018-10-19T17:07:04.447Z,16.60
2018-10-19T17:09:33.123Z,16.80
2018-10-19T17:12:01.917Z,16.90
2018-10-19T17:14:30.647Z,16.80
2018-10-19T17:16:59.268Z,16.80
2018-10-19T17:19:27.930Z,17.00
2018-10-19T17:21:56.893Z,17.20
2018-10-19T17:24:25.841Z,17.30
2018-10-19T17:26:54.819Z,17.40
2018-10-19T17:29:23.497Z,17.40
2018-10-19T17:31:52.296Z,17.40
2018-10-19T17:34:20.920Z,17.40
2018-10-19T17:36:49.635Z,17.40
2018-10-19T17:39:18.319Z,17.40
2018-10-19T17:41:47.104Z,17.50
2018-10-19T17:44:15.728Z,17.50
2018-10-19T17:46:44.408Z,17.50
2018-10-19T17:49:13.248Z,17.50
2018-10-19T17:51:41.771Z,17.60
2018-10-19T17:54:10.601Z,17.60
2018-10-19T17:56:39.407Z,17.60
2018-10-19T17:59:08.561Z,17.50
2018-10-19T18:01:37.238Z,17.50
2018-10-19T18:04:05.949Z,17.60
2018-10-19T18:06:34.691Z,17.50
2018-10-19T18:09:03.514Z,17.60
2018-10-19T18:11:32.504Z,17.60
2018-10-19T18:14:01.253Z,17.60
2018-10-19T18:16:29.980Z,17.60
2018-10-19T18:18:58.613Z,17.60
2018-10-19T18:21:27.442Z,17.70
2018-10-19T18:23:56.256Z,17.70
2018-10-19T18:26:25.388Z,17.70
2018-10-19T18:28:54.259Z,17.70
2018-10-19T18:31:23.015Z,17.70
2018-10-19T18:33:51.743Z,17.70
2018-10-19T18:36:20.399Z,17.70
2018-10-19T18:38:49.136Z,17.70
2018-10-19T18:41:17.796Z,17.50
2018-10-19T18:43:46.512Z,17.40
2018-10-19T18:46:15.153Z,17.50
2018-10-19T18:48:43.822Z,17.50
2018-10-19T18:51:12.462Z,17.60
2018-10-19T18:53:41.220Z,17.10
2018-10-19T18:56:10.061Z,17.30
2018-10-19T18:58:39.000Z,17.40
2018-10-19T19:01:07.842Z,17.20
2018-10-19T19:03:36.752Z,16.60
2018-10-19T19:06:05.723Z,16.40
2018-10-19T19:08:34.511Z,16.40
2018-10-19T19:11:03.238Z,16.20
2018-10-19T19:13:32.856Z,16.20
2018-10-19T19:16:02.048Z,15.60
2018-10-19T19:18:30.864Z,16.40
2018-10-19T19:20:59.504Z,15.80
2018-10-19T19:23:28.272Z,15.40
2018-10-19T19:26:02.323Z,14.70
2018-10-19T19:28:30.983Z,15.20
2018-10-19T19:30:59.632Z,15.70
2018-10-19T19:33:33.761Z,15.10
2018-10-19T19:36:02.473Z,14.10
2018-10-19T19:38:31.140Z,14.40
2018-10-19T19:41:05.166Z,14.90
2018-10-19T19:43:34.004Z,15.20
2018-10-19T19:46:02.657Z,15.40
2018-10-19T19:48:36.662Z,15.80
2018-10-19T19:51:05.439Z,15.50
2018-10-19T19:53:34.381Z,16.20
2018-10-19T19:56:03.057Z,16.40
2018-10-19T19:58:31.762Z,16.60
2018-10-19T20:01:00.396Z,17.10
2018-10-19T20:03:29.060Z,17.20
2018-10-19T20:05:57.701Z,16.40
2018-10-19T20:08:26.384Z,16.30
2018-10-19T20:10:55.204Z,15.90
2018-10-19T20:13:24.099Z,16.60
2018-10-19T20:15:52.999Z,16.80
2018-10-19T20:18:21.789Z,16.60
2018-10-19T20:20:50.827Z,16.90
2018-10-19T20:23:19.711Z,17.20
2018-10-19T20:25:48.466Z,17.30
2018-10-19T20:28:17.652Z,17.30
2018-10-19T20:30:46.552Z,17.40
2018-10-19T20:33:15.471Z,17.30
2018-10-19T20:35:44.511Z,17.30
2018-10-19T20:38:13.525Z,17.00
2018-10-19T20:40:42.686Z,17.00
2018-10-19T20:43:11.684Z,17.20
2018-10-19T20:45:40.652Z,17.20
2018-10-19T20:48:09.619Z,17.20
2018-10-19T20:50:38.504Z,17.20
2018-10-19T20:53:07.508Z,17.10
2018-10-19T20:55:36.558Z,17.10
2018-10-19T20:58:05.700Z,17.10
2018-10-19T21:00:34.642Z,16.70
2018-10-19T21:03:03.576Z,16.50
2018-10-19T21:05:32.321Z,16.80
2018-10-19T21:08:01.177Z,16.90
2018-10-19T21:10:29.903Z,17.00
2018-10-19T21:12:58.599Z,17.00
2018-10-19T21:15:27.775Z,17.00
2018-10-19T21:17:56.424Z,17.00
2018-10-19T21:20:25.237Z,17.00
2018-10-19T21:22:54.101Z,17.00
2018-10-19T21:25:22.906Z,17.00
2018-10-19T21:27:51.541Z,16.90
2018-10-19T21:30:20.221Z,17.00
2018-10-19T21:32:48.873Z,17.00
2018-10-19T21:35:17.662Z,17.00
2018-10-19T21:37:46.421Z,17.00
2018-10-19T21:40:15.176Z,17.00
2018-10-19T21:42:43.892Z,17.00
2018-10-19T21:45:12.831Z,16.90
2018-10-19T21:47:41.557Z,16.90
2018-10-19T21:50:10.832Z,16.90
2018-10-19T21:52:39.562Z,16.90
2018-10-19T21:55:10.017Z,16.90
2018-10-19T21:57:38.959Z,16.80
2018-10-19T22:00:09.480Z,16.80
2018-10-19T22:02:38.526Z,16.80
2018-10-19T22:05:07.656Z,16.80
2018-10-19T22:07:36.419Z,16.80
2018-10-19T22:10:05.243Z,16.80
2018-10-19T22:12:33.943Z,16.80
2018-10-19T22:15:02.684Z,16.80
2018-10-19T22:17:31.431Z,16.70
2018-10-19T22:20:00.081Z,16.70
2018-10-19T22:22:28.887Z,16.70
2018-10-19T22:24:57.583Z,16.70
2018-10-19T22:27:26.216Z,16.70
2018-10-19T22:29:54.971Z,16.70
2018-10-19T22:32:23.651Z,16.60
2018-10-19T22:34:52.376Z,16.40
2018-10-19T22:37:21.048Z,16.40
2018-10-19T22:39:49.685Z,16.60
2018-10-19T22:42:18.459Z,16.60
2018-10-19T22:44:47.174Z,16.60
2018-10-19T22:47:16.024Z,16.50
2018-10-19T22:49:44.691Z,16.50
2018-10-19T22:52:13.556Z,16.60
2018-10-19T22:54:42.524Z,16.60
2018-10-19T22:57:11.451Z,16.50
2018-10-19T22:59:40.143Z,16.50
2018-10-19T23:02:08.885Z,16.50
2018-10-19T23:04:37.633Z,16.50
2018-10-19T23:07:06.795Z,16.40
2018-10-19T23:09:35.836Z,16.40
2018-10-19T23:12:04.515Z,16.40
2018-10-19T23:14:33.177Z,16.40
2018-10-19T23:17:02.027Z,16.40
2018-10-19T23:19:30.672Z,16.40
2018-10-19T23:21:59.299Z,16.40
2018-10-19T23:24:27.968Z,16.40
2018-10-19T23:26:56.619Z,16.40
2018-10-19T23:29:25.281Z,16.30
2018-10-19T23:31:53.985Z,16.40
2018-10-19T23:34:22.878Z,16.30
2018-10-19T23:36:51.624Z,16.30
2018-10-19T23:39:20.288Z,16.30
2018-10-19T23:41:48.919Z,16.30
2018-10-19T23:44:17.592Z,16.30
2018-10-19T23:46:46.276Z,16.20
2018-10-19T23:49:15.184Z,16.20
2018-10-19T23:51:44.077Z,16.20
2018-10-19T23:54:13.052Z,16.10
2018-10-19T23:56:42.025Z,16.10
2018-10-19T23:59:10.865Z,16.20
